Time;durP1;ratioP1;P1;durP2;ratioP2;P2;SDS_P1;SDS_P2;PMS_P1;PMS_P2;Temp;Humidity;BMP_temperature;BMP_pressure;BME280_temperature;BME280_humidity;BME280_pressure;Samples;Min_cycle;Max_cycle;Signal;HPM_P1;HPM_P2
2023/07/13 00:02:17;;;;;;;0.30;0.30;;;;;;;21.25;42.94;100925.41;5177217;28;20036;-81
2023/07/13 00:05:09;;;;;;;0.20;0.20;;;;;;;21.19;42.90;100925.84;5171675;28;20042;-81
2023/07/13 00:08:00;;;;;;;0.20;0.20;;;;;;;21.23;43.06;100924.66;5178205;28;20389;-81
2023/07/13 00:10:54;;;;;;;1.42;1.10;;;;;;;21.18;43.07;100930.31;5183802;28;20555;-80
2023/07/13 00:13:45;;;;;;;0.20;0.20;;;;;;;21.16;43.22;100923.38;5176857;28;20037;-81
2023/07/13 00:16:38;;;;;;;0.40;0.40;;;;;;;21.15;43.17;100927.00;5191206;28;20029;-80
2023/07/13 00:19:28;;;;;;;0.20;0.20;;;;;;;21.06;43.54;100921.34;5200680;28;20041;-81
2023/07/13 00:22:19;;;;;;;0.20;0.20;;;;;;;21.02;43.81;100933.19;5185709;28;20034;-81
2023/07/13 00:25:11;;;;;;;3.70;1.20;;;;;;;20.98;43.57;100937.03;5181410;28;20183;-80
2023/07/13 00:28:03;;;;;;;0.25;0.25;;;;;;;20.98;43.40;100934.34;5201977;28;20089;-81
2023/07/13 00:30:54;;;;;;;0.30;0.30;;;;;;;20.94;43.65;100932.00;5185419;28;20121;-81
2023/07/13 00:33:45;;;;;;;1.65;1.00;;;;;;;20.95;43.64;100936.38;5204769;28;20037;-80
2023/07/13 00:36:35;;;;;;;0.38;0.38;;;;;;;20.88;43.38;100939.47;5204692;28;20123;-81
2023/07/13 00:39:27;;;;;;;0.32;0.32;;;;;;;20.84;44.31;100937.09;5191444;28;20029;-81
2023/07/13 00:42:18;;;;;;;0.20;0.20;;;;;;;20.76;44.70;100934.94;5183445;28;20477;-80
2023/07/13 00:45:11;;;;;;;0.20;0.20;;;;;;;20.73;44.35;100933.34;5202180;28;20049;-81
2023/07/13 00:48:02;;;;;;;;;;;;;;;20.72;44.37;100934.25;5205030;28;20020;-81
2023/07/13 00:50:57;;;;;;;2.08;1.27;;;;;;;20.68;44.45;100937.22;5171956;28;19960;-80
2023/07/13 00:53:48;;;;;;;1.02;0.30;;;;;;;20.65;45.09;100927.63;5201893;28;20097;-81
2023/07/13 00:56:41;;;;;;;5.05;1.48;;;;;;;20.69;44.23;100929.16;5202709;28;20024;-80
2023/07/13 00:59:36;;;;;;;0.25;0.25;;;;;;;20.67;44.78;100930.19;5195557;28;20109;-81
2023/07/13 01:02:28;;;;;;;11.80;0.82;;;;;;;20.65;44.54;100932.13;5193254;28;20040;-80
2023/07/13 01:05:22;;;;;;;0.52;0.52;;;;;;;20.62;44.71;100930.47;5173825;28;20045;-80
2023/07/13 01:08:13;;;;;;;0.38;0.38;;;;;;;20.57;44.78;100930.81;5200108;28;20029;-80
2023/07/13 01:11:03;;;;;;;0.22;0.22;;;;;;;20.53;44.92;100923.13;5178322;28;20044;-80
2023/07/13 01:13:54;;;;;;;0.47;0.40;;;;;;;20.56;45.32;100929.09;5206314;28;20059;-81
2023/07/13 01:16:47;;;;;;;0.50;0.50;;;;;;;20.44;45.51;100922.78;5192637;28;20028;-80
2023/07/13 01:19:45;;;;;;;0.52;0.52;;;;;;;20.39;46.01;100927.53;5189047;28;20771;-81
2023/07/13 01:22:35;;;;;;;0.30;0.30;;;;;;;20.36;46.03;100933.06;5192511;28;20030;-80
2023/07/13 01:25:26;;;;;;;0.50;0.50;;;;;;;20.28;46.29;100924.72;5177849;28;20038;-81
2023/07/13 01:28:17;;;;;;;0.47;0.47;;;;;;;20.24;46.92;100920.53;5206005;28;20032;-80
2023/07/13 01:31:09;;;;;;;0.50;0.50;;;;;;;20.24;46.35;100917.88;5180111;28;20129;-81
2023/07/13 01:34:00;;;;;;;0.20;0.20;;;;;;;20.31;45.84;100913.84;5206454;28;20076;-80
2023/07/13 01:36:53;;;;;;;0.85;0.85;;;;;;;20.29;46.17;100913.97;5188796;28;20013;-80
2023/07/13 01:39:44;;;;;;;5.47;1.05;;;;;;;20.28;46.40;100919.41;5200131;28;20133;-81
2023/07/13 01:42:36;;;;;;;0.20;0.20;;;;;;;20.15;46.64;100921.13;5170839;28;20025;-81
2023/07/13 01:45:27;;;;;;;1.80;1.17;;;;;;;20.19;46.20;100933.31;5209199;28;20061;-80
2023/07/13 01:48:18;;;;;;;0.55;0.55;;;;;;;20.14;46.79;100928.28;5171764;28;20041;-80
2023/07/13 01:51:08;;;;;;;1.20;0.80;;;;;;;20.16;46.11;100925.50;5184514;28;20043;-80
2023/07/13 01:53:59;;;;;;;0.20;0.20;;;;;;;20.09;46.58;100928.56;5169482;28;20034;-81
2023/07/13 01:56:50;;;;;;;0.40;0.40;;;;;;;20.12;46.72;100930.19;5172675;28;20715;-81
2023/07/13 01:59:41;;;;;;;0.30;0.30;;;;;;;20.11;46.47;100918.69;5189062;28;20049;-81
2023/07/13 02:02:32;;;;;;;0.20;0.20;;;;;;;20.16;46.43;100920.19;5185182;28;20029;-81
2023/07/13 02:05:23;;;;;;;0.30;0.30;;;;;;;20.13;46.63;100930.06;5183787;28;20034;-80
2023/07/13 02:08:14;;;;;;;8.77;1.48;;;;;;;20.03;47.87;100928.97;5188258;28;20506;-80
2023/07/13 02:11:04;;;;;;;0.20;0.20;;;;;;;19.72;49.49;100925.53;5171561;28;20026;-80
2023/07/13 02:13:55;;;;;;;0.20;0.20;;;;;;;19.47;50.01;100932.38;5180124;28;20484;-80
2023/07/13 02:16:48;;;;;;;1.55;1.42;;;;;;;19.49;49.85;100938.47;5193647;28;20029;-80
2023/07/13 02:19:39;;;;;;;3.97;1.10;;;;;;;19.39;50.62;100931.13;5183790;28;20041;-81
2023/07/13 02:22:30;;;;;;;0.30;0.30;;;;;;;19.48;50.57;100933.25;5197405;28;20029;-81
2023/07/13 02:25:21;;;;;;;0.20;0.20;;;;;;;19.63;49.15;100931.41;5186112;28;20091;-81
2023/07/13 02:28:12;;;;;;;0.45;0.38;;;;;;;19.26;50.96;100936.34;5208715;28;20124;-81
2023/07/13 02:31:11;;;;;;;0.20;0.20;;;;;;;19.48;49.56;100942.06;5179238;28;20057;-81
2023/07/13 02:34:03;;;;;;;0.90;0.90;;;;;;;19.34;51.07;100939.41;5191756;28;20099;-80
2023/07/13 02:36:54;;;;;;;0.20;0.20;;;;;;;19.38;49.73;100940.91;5190419;28;20095;-81
2023/07/13 02:39:45;;;;;;;0.32;0.32;;;;;;;19.45;49.55;100936.06;5179120;28;20037;-81
2023/07/13 02:42:36;;;;;;;0.28;0.28;;;;;;;19.55;49.10;100941.69;5190855;28;20120;-81
2023/07/13 02:45:27;;;;;;;7.13;0.65;;;;;;;19.57;48.79;100939.78;5192343;28;20053;-81
2023/07/13 02:48:18;;;;;;;0.43;0.43;;;;;;;19.54;49.01;100937.34;5217116;28;20068;-81
2023/07/13 02:51:08;;;;;;;0.20;0.20;;;;;;;19.54;49.40;100935.50;5180118;28;20094;-82
2023/07/13 02:54:03;;;;;;;0.43;0.30;;;;;;;19.53;48.85;100946.25;5185349;28;20120;-81
2023/07/13 02:56:54;;;;;;;0.63;0.60;;;;;;;19.52;49.59;100941.88;5189958;28;20021;-81
2023/07/13 02:59:45;;;;;;;1.95;0.70;;;;;;;19.56;48.98;100936.28;5174271;28;20750;-81
2023/07/13 03:02:36;;;;;;;0.20;0.20;;;;;;;19.56;49.11;100940.72;5172325;28;20032;-81
2023/07/13 03:05:27;;;;;;;4.15;1.85;;;;;;;19.31;49.88;100939.56;5207539;28;20042;-81
2023/07/13 03:08:21;;;;;;;1.25;0.95;;;;;;;19.43;49.06;100944.16;5172808;28;20029;-81
2023/07/13 03:11:15;;;;;;;0.40;0.40;;;;;;;19.45;48.74;100942.28;5210029;28;20033;-80
2023/07/13 03:14:08;;;;;;;0.43;0.43;;;;;;;19.41;48.75;100958.50;5191477;28;20037;-81
2023/07/13 03:16:59;;;;;;;0.40;0.40;;;;;;;19.32;49.22;100952.81;5208396;28;20033;-81
2023/07/13 03:19:50;;;;;;;3.85;1.75;;;;;;;19.30;49.48;100952.03;5187255;28;20232;-81
2023/07/13 03:22:41;;;;;;;0.77;0.77;;;;;;;19.36;49.32;100958.78;5193192;28;20037;-81
2023/07/13 03:25:32;;;;;;;0.85;0.85;;;;;;;19.24;49.95;100955.06;5205813;28;20106;-81
2023/07/13 03:28:23;;;;;;;0.10;0.10;;;;;;;19.30;49.39;100959.13;5188480;28;20059;-81
2023/07/13 03:31:17;;;;;;;0.20;0.20;;;;;;;19.32;49.06;100951.94;5188068;28;20068;-81
2023/07/13 03:34:08;;;;;;;0.30;0.30;;;;;;;19.11;49.85;100960.25;5165805;28;20040;-81
2023/07/13 03:36:58;;;;;;;0.20;0.20;;;;;;;18.98;50.93;100953.94;5173565;28;20041;-82
2023/07/13 03:39:50;;;;;;;0.30;0.30;;;;;;;18.68;51.86;100950.28;5168952;28;20033;-82
2023/07/13 03:42:40;;;;;;;3.03;1.10;;;;;;;18.41;53.52;100955.38;5170626;28;20052;-81
2023/07/13 03:45:31;;;;;;;0.40;0.40;;;;;;;18.66;51.65;100956.63;5196784;28;20076;-82
2023/07/13 03:48:22;;;;;;;0.20;0.20;;;;;;;18.36;53.74;100958.28;5169064;28;20040;-81
2023/07/13 03:51:15;;;;;;;0.20;0.20;;;;;;;18.11;54.60;100963.25;5171338;28;20061;-81
2023/07/13 03:54:06;;;;;;;1.27;1.17;;;;;;;17.91;55.70;100967.84;5185867;28;20030;-82
2023/07/13 03:56:57;;;;;;;0.52;0.52;;;;;;;17.74;56.00;100966.06;5204477;28;20056;-81
2023/07/13 03:59:48;;;;;;;0.25;0.25;;;;;;;17.91;55.61;100973.97;5185144;28;20443;-81
2023/07/13 04:02:38;;;;;;;0.55;0.55;;;;;;;17.84;55.79;100969.94;5196805;28;20033;-81
2023/07/13 04:05:29;;;;;;;0.50;0.50;;;;;;;17.73;56.65;100970.53;5194452;28;20041;-82
2023/07/13 04:08:20;;;;;;;0.85;0.65;;;;;;;17.48;57.86;100976.25;5176168;28;20556;-81
2023/07/13 04:11:11;;;;;;;0.20;0.20;;;;;;;17.36;58.56;100982.22;5174398;28;20045;-80
2023/07/13 04:14:02;;;;;;;0.30;0.30;;;;;;;17.24;58.86;100979.22;5206606;28;20033;-81
2023/07/13 04:16:54;;;;;;;0.20;0.20;;;;;;;17.39;58.58;100982.91;5188315;28;20033;-81
2023/07/13 04:19:45;;;;;;;0.20;0.20;;;;;;;17.24;58.96;100986.34;5187218;28;20040;-81
2023/07/13 04:22:36;;;;;;;2.25;1.40;;;;;;;17.23;59.38;100988.13;5185307;28;20044;-82
2023/07/13 04:25:27;;;;;;;0.25;0.25;;;;;;;17.35;58.79;100985.78;5167319;28;20048;-82
2023/07/13 04:28:21;;;;;;;0.40;0.40;;;;;;;17.23;59.42;100993.44;5166475;28;20108;-82
2023/07/13 04:31:11;;;;;;;1.52;0.82;;;;;;;17.25;59.57;100993.38;5196346;28;20037;-82
2023/07/13 04:34:02;;;;;;;1.08;1.05;;;;;;;16.80;61.49;100995.56;5164492;28;20041;-80
2023/07/13 04:36:53;;;;;;;0.32;0.32;;;;;;;16.67;62.06;100996.13;5179999;28;20848;-79
2023/07/13 04:39:44;;;;;;;0.22;0.22;;;;;;;16.64;61.99;101004.25;5183456;28;20040;-79
2023/07/13 04:42:35;;;;;;;0.20;0.20;;;;;;;16.44;63.14;100999.03;5195443;28;20083;-79
2023/07/13 04:45:26;;;;;;;0.20;0.20;;;;;;;16.65;63.02;101000.66;5179531;28;20051;-79
2023/07/13 04:48:17;;;;;;;0.40;0.40;;;;;;;16.46;64.01;101005.13;5178831;28;20026;-79
2023/07/13 04:51:07;;;;;;;0.40;0.40;;;;;;;16.51;63.81;101003.09;5178721;28;20180;-79
2023/07/13 04:53:58;;;;;;;1.20;0.75;;;;;;;16.57;63.57;100999.31;5159129;28;20045;-79
2023/07/13 04:56:49;;;;;;;2.53;1.25;;;;;;;16.38;64.51;101000.16;5180706;28;20033;-79
2023/07/13 04:59:40;;;;;;;0.20;0.20;;;;;;;16.42;64.64;101003.53;5177156;28;20025;-79
2023/07/13 05:02:32;;;;;;;0.70;0.70;;;;;;;16.26;65.29;101004.25;5174273;28;20468;-79
2023/07/13 05:05:24;;;;;;;0.47;0.47;;;;;;;16.31;65.18;101004.03;5194248;28;20037;-79
2023/07/13 05:08:15;;;;;;;0.20;0.20;;;;;;;16.31;65.44;101007.56;5194191;28;20021;-79
2023/07/13 05:11:07;;;;;;;0.60;0.60;;;;;;;16.22;66.19;101010.63;5179427;28;20099;-79
2023/07/13 05:13:57;;;;;;;0.95;0.68;;;;;;;16.47;64.95;101014.78;5175531;28;20509;-80
2023/07/13 05:16:48;;;;;;;0.32;0.32;;;;;;;16.37;65.57;101019.63;5178464;28;20128;-79
2023/07/13 05:19:39;;;;;;;0.30;0.30;;;;;;;16.38;65.97;101024.00;5196600;28;20107;-79
2023/07/13 05:22:30;;;;;;;0.63;0.63;;;;;;;16.40;65.73;101024.81;5194048;28;20032;-79
2023/07/13 05:25:21;;;;;;;0.47;0.47;;;;;;;16.45;66.40;101027.22;5176370;28;20040;-79
2023/07/13 05:28:12;;;;;;;0.57;0.57;;;;;;;16.41;66.27;101028.28;5178786;28;20013;-79
2023/07/13 05:31:03;;;;;;;1.15;1.15;;;;;;;16.45;66.73;101035.19;5179457;28;20025;-79
2023/07/13 05:33:53;;;;;;;0.40;0.40;;;;;;;16.34;67.33;101040.97;5192178;28;20033;-78
2023/07/13 05:36:44;;;;;;;0.47;0.47;;;;;;;16.55;66.05;101039.13;5178528;28;20087;-79
2023/07/13 05:39:35;;;;;;;1.65;1.25;;;;;;;16.39;67.32;101032.81;5178299;28;20045;-79
2023/07/13 05:42:26;;;;;;;0.20;0.20;;;;;;;16.42;67.22;101037.97;5196614;28;20502;-79
2023/07/13 05:45:17;;;;;;;1.15;1.15;;;;;;;16.59;66.55;101053.91;5179403;28;20528;-79
2023/07/13 05:48:08;;;;;;;0.85;0.82;;;;;;;16.53;67.40;101057.72;5176683;28;20024;-80
2023/07/13 05:50:58;;;;;;;0.40;0.40;;;;;;;16.63;67.57;101059.94;5181812;28;20049;-79
2023/07/13 05:53:49;;;;;;;2.50;1.45;;;;;;;16.63;67.15;101057.28;5178543;28;20345;-79
2023/07/13 05:56:40;;;;;;;0.20;0.20;;;;;;;16.74;67.00;101056.78;5187642;28;20530;-80
2023/07/13 05:59:31;;;;;;;1.00;0.80;;;;;;;16.74;67.46;101056.78;5200643;28;20044;-79
2023/07/13 06:02:22;;;;;;;0.40;0.40;;;;;;;16.92;66.15;101055.91;5179388;28;20407;-79
2023/07/13 06:05:13;;;;;;;0.88;0.88;;;;;;;16.75;67.23;101067.31;5181451;28;20041;-80
2023/07/13 06:08:04;;;;;;;0.20;0.20;;;;;;;16.84;66.94;101060.69;5169118;28;20495;-80
2023/07/13 06:11:02;;;;;;;0.85;0.85;;;;;;;16.86;67.85;101064.16;5178299;28;20050;-79
2023/07/13 06:13:53;;;;;;;0.43;0.40;;;;;;;16.98;66.83;101068.03;5197575;28;20025;-79
2023/07/13 06:16:45;;;;;;;0.40;0.40;;;;;;;16.99;67.32;101065.28;5184406;28;20025;-80
2023/07/13 06:19:36;;;;;;;0.30;0.30;;;;;;;16.91;67.22;101067.44;5170028;28;20041;-79
2023/07/13 06:22:27;;;;;;;0.28;0.28;;;;;;;17.01;67.22;101067.00;5173170;28;20116;-80
2023/07/13 06:25:18;;;;;;;0.63;0.63;;;;;;;16.96;67.51;101067.22;5184147;28;20128;-79
2023/07/13 06:28:09;;;;;;;0.43;0.43;;;;;;;17.02;66.87;101072.25;5183710;28;20603;-79
2023/07/13 06:31:00;;;;;;;1.02;0.95;;;;;;;17.23;66.15;101075.63;5184436;28;20041;-79
2023/07/13 06:33:51;;;;;;;0.75;0.75;;;;;;;17.24;66.81;101072.03;5183678;28;20056;-79
2023/07/13 06:36:43;;;;;;;0.20;0.20;;;;;;;17.33;66.53;101077.81;5170858;28;20033;-80
2023/07/13 06:39:34;;;;;;;5.22;2.42;;;;;;;17.27;65.80;101079.00;5167136;28;20030;-80
2023/07/13 06:42:25;;;;;;;0.20;0.20;;;;;;;17.25;66.74;101076.41;5168411;28;20095;-80
2023/07/13 06:45:16;;;;;;;0.22;0.22;;;;;;;17.31;66.42;101081.41;5197235;28;20037;-80
2023/07/13 06:48:07;;;;;;;0.30;0.30;;;;;;;17.50;65.63;101082.31;5165917;28;20029;-80
2023/07/13 06:50:58;;;;;;;0.28;0.28;;;;;;;17.35;66.54;101089.22;5181531;28;20068;-80
2023/07/13 06:53:50;;;;;;;1.65;1.35;;;;;;;17.28;66.83;101101.91;5182233;28;20036;-80
2023/07/13 06:56:40;;;;;;;0.40;0.40;;;;;;;17.33;66.57;101107.88;5200830;28;20034;-80
2023/07/13 06:59:31;;;;;;;0.65;0.65;;;;;;;17.26;66.66;101103.81;5180292;28;20468;-80
2023/07/13 07:02:22;;;;;;;0.45;0.45;;;;;;;17.30;66.95;101111.53;5179404;28;20029;-79
2023/07/13 07:05:13;;;;;;;0.73;0.73;;;;;;;17.38;66.62;101095.22;5165919;28;20516;-79
2023/07/13 07:08:04;;;;;;;0.38;0.38;;;;;;;17.56;66.51;101103.22;5180880;28;20025;-80
2023/07/13 07:10:55;;;;;;;0.85;0.70;;;;;;;17.61;65.99;101103.81;5165639;28;20044;-80
2023/07/13 07:13:45;;;;;;;0.40;0.40;;;;;;;17.65;66.07;101117.78;5198557;28;20029;-80
2023/07/13 07:16:36;;;;;;;0.30;0.30;;;;;;;17.80;65.33;101109.06;5170170;28;20385;-80
2023/07/13 07:19:30;;;;;;;0.80;0.70;;;;;;;17.87;65.13;101118.44;5184933;28;20044;-80
2023/07/13 07:22:21;;;;;;;0.52;0.50;;;;;;;17.84;65.94;101115.09;5185485;28;20029;-80
2023/07/13 07:25:12;;;;;;;0.30;0.30;;;;;;;17.76;65.90;101112.81;5198306;28;20041;-80
2023/07/13 07:28:03;;;;;;;0.80;0.80;;;;;;;17.62;66.27;101117.03;5180629;28;20022;-80
2023/07/13 07:30:56;;;;;;;3.50;1.05;;;;;;;17.63;66.41;101107.25;5195364;28;20070;-80
2023/07/13 07:33:47;;;;;;;0.47;0.47;;;;;;;17.62;66.74;101116.16;5180848;28;20025;-80
2023/07/13 07:36:37;;;;;;;1.75;1.23;;;;;;;17.81;66.16;101116.06;5197999;28;20028;-80
2023/07/13 07:39:29;;;;;;;0.75;0.40;;;;;;;17.89;65.81;101119.19;5182584;28;20559;-80
2023/07/13 07:42:20;;;;;;;1.90;1.80;;;;;;;18.03;65.39;101121.16;5183371;28;20034;-80
2023/07/13 07:45:13;;;;;;;18.63;1.67;;;;;;;18.14;65.20;101112.63;5164462;28;20049;-80
2023/07/13 07:48:05;;;;;;;4.15;1.35;;;;;;;18.16;66.48;101110.75;5167934;28;20108;-80
2023/07/13 07:50:55;;;;;;;0.22;0.22;;;;;;;18.06;66.36;101114.84;5197957;28;20037;-80
2023/07/13 07:53:47;;;;;;;8.77;0.52;;;;;;;18.11;65.99;101126.09;5197064;28;20029;-80
2023/07/13 07:56:38;;;;;;;0.98;0.95;;;;;;;18.05;65.80;101129.06;5199397;28;20649;-79
2023/07/13 07:59:28;;;;;;;0.35;0.20;;;;;;;18.05;66.17;101126.41;5184193;28;20030;-80
2023/07/13 08:02:19;;;;;;;0.38;0.38;;;;;;;17.90;66.43;101128.88;5169701;28;20037;-80
2023/07/13 08:05:11;;;;;;;0.20;0.20;;;;;;;18.08;66.07;101126.25;5180983;28;20196;-80
2023/07/13 08:08:02;;;;;;;0.95;0.95;;;;;;;18.14;65.97;101120.59;5179078;28;20021;-79
2023/07/13 08:10:53;;;;;;;1.02;0.93;;;;;;;18.31;64.92;101124.16;5195949;28;20033;-79
2023/07/13 08:13:43;;;;;;;0.60;0.60;;;;;;;18.27;65.52;101120.81;5195153;28;20041;-79
2023/07/13 08:16:34;;;;;;;0.20;0.20;;;;;;;18.37;65.21;101124.69;5198370;28;20483;-80
2023/07/13 08:19:25;;;;;;;0.77;0.57;;;;;;;18.29;64.93;101118.94;5198469;28;20041;-80
2023/07/13 08:22:16;;;;;;;2.60;1.58;;;;;;;18.02;66.53;101116.78;5196468;28;20412;-79
2023/07/13 08:25:07;;;;;;;0.50;0.50;;;;;;;18.31;65.49;101119.72;5163348;28;20057;-79
2023/07/13 08:27:58;;;;;;;0.22;0.22;;;;;;;18.30;65.91;101125.13;5167208;28;20122;-79
2023/07/13 08:30:49;;;;;;;9.90;0.85;;;;;;;18.21;65.92;101121.13;5197562;28;20033;-79
2023/07/13 08:33:43;;;;;;;0.47;0.47;;;;;;;18.40;65.50;101124.53;5177222;28;20033;-79
2023/07/13 08:36:34;;;;;;;2.15;1.95;;;;;;;18.50;65.40;101116.09;5168356;28;20045;-80
2023/07/13 08:39:25;;;;;;;3.25;1.58;;;;;;;18.41;65.76;101109.44;5165967;28;20037;-79
2023/07/13 08:42:39;;;;;;;0.38;0.38;;;;;;;18.45;65.45;101115.47;5179754;28;20045;-79
2023/07/13 08:45:35;;;;;;;;;;;;;;;18.37;65.47;101114.06;5182993;28;20057;-79
2023/07/13 08:48:39;;;;;;;0.98;0.98;;;;;;;18.50;65.27;101105.47;5183155;28;19913;-79
2023/07/13 08:51:49;;;;;;;0.30;0.30;;;;;;;18.65;65.05;101114.38;5200553;28;20445;-79
2023/07/13 08:54:45;;;;;;;0.85;0.85;;;;;;;18.55;64.63;101109.56;5175601;28;20582;-79
2023/07/13 08:57:38;;;;;;;0.38;0.38;;;;;;;18.54;63.95;101107.00;5196650;28;20392;-79
2023/07/13 09:00:43;;;;;;;0.38;0.38;;;;;;;18.55;64.40;101104.25;5196222;28;20033;-80
2023/07/13 09:03:46;;;;;;;0.95;0.95;;;;;;;18.65;63.71;101104.63;5166258;28;20029;-79
2023/07/13 09:06:42;;;;;;;28.63;1.30;;;;;;;18.74;63.15;101113.88;5177838;28;20041;-79
2023/07/13 09:09:53;;;;;;;0.65;0.47;;;;;;;18.86;62.78;101109.66;5163365;28;20025;-80
2023/07/13 09:13:33;;;;;;;2.95;1.45;;;;;;;18.95;62.32;101116.31;5169432;28;20034;-79
2023/07/13 09:16:24;;;;;;;0.30;0.30;;;;;;;18.85;61.80;101118.56;5190223;28;20042;-79
2023/07/13 09:19:24;;;;;;;4.97;1.10;;;;;;;18.83;61.81;101126.66;5176256;28;20046;-81
2023/07/13 09:22:19;;;;;;;2.72;1.17;;;;;;;18.80;61.80;101126.81;5162578;28;20021;-79
2023/07/13 09:25:35;;;;;;;0.88;0.88;;;;;;;18.84;61.18;101125.72;5193882;28;20046;-78
2023/07/13 09:28:30;;;;;;;0.55;0.55;;;;;;;19.02;60.97;101123.00;5182632;28;20104;-81
2023/07/13 09:31:36;;;;;;;0.40;0.40;;;;;;;18.95;61.39;101113.66;5199067;28;20025;-79
2023/07/13 09:34:30;;;;;;;5.93;0.50;;;;;;;19.07;61.06;101115.59;5179938;28;20396;-79
2023/07/13 09:37:30;;;;;;;2.97;1.48;;;;;;;19.25;60.43;101119.03;5165855;28;20061;-79
2023/07/13 09:40:36;;;;;;;0.50;0.50;;;;;;;19.37;59.97;101122.78;5180539;28;20033;-79
2023/07/13 09:43:28;;;;;;;0.55;0.52;;;;;;;19.19;59.53;101127.34;5195314;28;20546;-79
2023/07/13 09:46:22;;;;;;;0.30;0.30;;;;;;;19.25;58.94;101119.03;5163899;28;20133;-79
2023/07/13 09:49:13;;;;;;;0.85;0.63;;;;;;;19.37;59.19;101133.44;5197006;28;20048;-79
2023/07/13 09:52:07;;;;;;;0.90;0.90;;;;;;;19.33;59.11;101129.22;5182410;28;20479;-79
2023/07/13 09:55:00;;;;;;;0.50;0.50;;;;;;;19.56;59.15;101121.69;5196557;28;20277;-80
2023/07/13 09:57:52;;;;;;;;;;;;;;;19.64;58.22;101119.44;5166836;28;20636;-79
2023/07/13 10:00:54;;;;;;;1.58;0.73;;;;;;;19.80;58.15;101135.38;5190018;28;20021;-80
2023/07/13 10:03:53;;;;;;;0.30;0.30;;;;;;;19.56;56.56;101117.25;5196967;28;20033;-78
2023/07/13 10:06:45;;;;;;;0.35;0.35;;;;;;;19.76;57.38;101132.03;5199460;28;20544;-79
2023/07/13 10:09:36;;;;;;;2.53;0.68;;;;;;;19.81;57.81;101135.28;5180550;28;20045;-80
2023/07/13 10:12:28;;;;;;;0.20;0.20;;;;;;;19.78;57.45;101129.28;5181804;28;20037;-79
2023/07/13 10:15:21;;;;;;;0.60;0.60;;;;;;;19.70;57.86;101131.53;5195242;28;20049;-79
2023/07/13 10:18:12;;;;;;;2.90;0.50;;;;;;;19.86;57.61;101126.22;5168903;28;20144;-80
2023/07/13 10:21:21;;;;;;;0.30;0.30;;;;;;;20.09;57.00;101143.44;5197455;28;20030;-80
2023/07/13 10:24:18;;;;;;;0.30;0.30;;;;;;;20.09;56.81;101132.78;5191255;28;20048;-79
2023/07/13 10:27:33;;;;;;;0.50;0.50;;;;;;;20.20;56.67;101132.16;5182818;28;20392;-79
2023/07/13 10:30:29;;;;;;;0.45;0.45;;;;;;;20.11;56.53;101133.56;5155958;28;20342;-79
2023/07/13 10:33:21;;;;;;;0.30;0.30;;;;;;;20.25;57.19;101132.72;5183339;28;20038;-79
2023/07/13 10:36:12;;;;;;;0.52;0.52;;;;;;;20.32;56.29;101130.53;5186699;28;20116;-80
2023/07/13 10:39:05;;;;;;;1.38;0.93;;;;;;;20.44;56.22;101125.31;5199562;28;20064;-80
2023/07/13 10:42:00;;;;;;;0.40;0.40;;;;;;;20.54;55.46;101125.59;5199745;28;20039;-79
2023/07/13 10:44:51;;;;;;;0.40;0.40;;;;;;;20.50;55.61;101134.72;5167862;28;20034;-79
2023/07/13 10:47:43;;;;;;;0.80;0.80;;;;;;;20.46;54.43;101138.53;5178577;28;20067;-80
2023/07/13 10:50:36;;;;;;;0.57;0.57;;;;;;;20.45;54.74;101139.47;5196476;28;20116;-80
2023/07/13 10:53:30;;;;;;;3.10;0.35;;;;;;;20.61;54.69;101142.06;5183695;28;20029;-80
2023/07/13 10:56:29;;;;;;;0.47;0.47;;;;;;;20.71;53.90;101137.84;5167128;28;20531;-79
2023/07/13 10:59:27;;;;;;;0.20;0.20;;;;;;;20.75;54.17;101142.06;5182101;28;20473;-80
2023/07/13 11:02:27;;;;;;;0.30;0.30;;;;;;;20.83;53.02;101146.06;5193122;28;20039;-80
2023/07/13 11:05:24;;;;;;;0.20;0.20;;;;;;;20.89;52.69;101141.19;5183753;28;20036;-80
2023/07/13 11:08:37;;;;;;;0.30;0.30;;;;;;;20.96;53.50;101154.13;5198071;28;20024;-81
2023/07/13 11:11:38;;;;;;;0.30;0.30;;;;;;;20.73;53.52;101146.63;5163387;28;20159;-79
2023/07/13 11:14:42;;;;;;;0.95;0.68;;;;;;;20.81;53.07;101140.81;5194390;28;20038;-81
2023/07/13 11:17:36;;;;;;;0.22;0.22;;;;;;;20.86;53.27;101143.19;5197737;28;20431;-79
2023/07/13 11:20:39;;;;;;;0.20;0.20;;;;;;;20.84;53.62;101145.09;5177122;28;20037;-79
2023/07/13 11:23:31;;;;;;;0.40;0.40;;;;;;;20.87;53.47;101144.88;5192177;28;20108;-79
2023/07/13 11:26:40;;;;;;;0.40;0.40;;;;;;;20.73;53.70;101143.97;5178454;28;20045;-80
2023/07/13 11:29:31;;;;;;;0.40;0.40;;;;;;;20.77;52.65;101133.97;5184179;28;20034;-80
2023/07/13 11:32:26;;;;;;;0.30;0.30;;;;;;;21.04;52.66;101125.16;5166677;28;20041;-80
2023/07/13 11:35:24;;;;;;;0.20;0.20;;;;;;;21.26;52.71;101135.28;5182737;28;20040;-80
2023/07/13 11:38:21;;;;;;;0.57;0.57;;;;;;;21.13;52.33;101126.34;5163536;28;20041;-81
2023/07/13 11:41:22;;;;;;;0.90;0.50;;;;;;;21.17;52.10;101125.19;5166574;28;20049;-80
2023/07/13 11:44:16;;;;;;;0.40;0.40;;;;;;;21.27;51.71;101120.97;5181442;28;20049;-80
2023/07/13 11:47:17;;;;;;;0.50;0.50;;;;;;;21.53;50.79;101126.38;5180121;28;20273;-81
2023/07/13 11:50:22;;;;;;;2.13;0.70;;;;;;;21.63;51.11;101122.16;5198528;28;20152;-80
2023/07/13 11:53:13;;;;;;;0.93;0.65;;;;;;;21.30;50.33;101126.09;5197820;28;20025;-80
2023/07/13 11:56:05;;;;;;;6.72;1.70;;;;;;;21.67;49.29;101128.16;5182644;28;20095;-81
2023/07/13 11:58:57;;;;;;;0.30;0.30;;;;;;;21.78;49.54;101119.41;5167988;28;20021;-81
2023/07/13 12:01:54;;;;;;;0.32;0.32;;;;;;;21.88;49.48;101120.50;5178295;28;20032;-80
2023/07/13 12:04:45;;;;;;;0.30;0.30;;;;;;;22.01;48.49;101125.84;5198264;28;20037;-81
2023/07/13 12:07:38;;;;;;;0.35;0.32;;;;;;;21.89;48.57;101118.69;5181295;28;20025;-80
2023/07/13 12:10:32;;;;;;;0.30;0.30;;;;;;;22.17;48.13;101117.63;5161729;28;20060;-79
2023/07/13 12:13:23;;;;;;;0.30;0.30;;;;;;;22.06;48.24;101126.41;5177216;28;20017;-80
2023/07/13 12:16:28;;;;;;;0.40;0.40;;;;;;;21.89;48.36;101121.38;5197631;28;20033;-84
2023/07/13 12:19:26;;;;;;;0.20;0.20;;;;;;;22.13;48.03;101113.44;5198660;28;20242;-84
2023/07/13 12:22:19;;;;;;;0.47;0.47;;;;;;;22.15;48.08;101101.69;5182237;28;20029;-83
2023/07/13 12:25:11;;;;;;;;;;;;;;;22.31;46.88;101096.13;5185220;28;20057;-83
2023/07/13 12:28:39;;;;;;;0.50;0.50;;;;;;;22.47;46.79;101108.44;5179873;28;19964;-83
2023/07/13 12:31:42;;;;;;;0.82;0.82;;;;;;;22.56;46.70;101105.09;5178745;28;20622;-82
2023/07/13 12:34:51;;;;;;;0.73;0.73;;;;;;;22.79;46.01;101110.59;5179319;28;20519;-82
2023/07/13 12:37:44;;;;;;;0.20;0.20;;;;;;;22.80;44.59;101112.31;5176602;28;20026;-82
2023/07/13 12:40:36;;;;;;;0.33;0.33;;;;;;;22.91;45.27;101108.84;5163322;28;20144;-82
2023/07/13 12:43:36;;;;;;;0.20;0.20;;;;;;;23.03;44.69;101102.59;5165078;28;20037;-84
2023/07/13 12:46:28;;;;;;;0.35;0.35;;;;;;;23.13;44.36;101104.59;5181179;28;20496;-82
2023/07/13 12:49:24;;;;;;;0.45;0.45;;;;;;;23.34;44.82;101104.84;5169711;28;20029;-82
2023/07/13 12:52:22;;;;;;;0.22;0.22;;;;;;;23.47;44.58;101104.78;5174173;28;20527;-83
2023/07/13 12:55:20;;;;;;;0.43;0.43;;;;;;;23.68;43.85;101111.16;5166095;28;20061;-83
2023/07/13 12:58:19;;;;;;;0.20;0.20;;;;;;;23.74;42.61;101109.84;5179316;28;20033;-83
2023/07/13 13:01:12;;;;;;;0.40;0.40;;;;;;;23.86;43.46;101116.91;5184875;28;20052;-82
2023/07/13 13:04:08;;;;;;;;;;;;;;;23.62;42.63;101108.09;5167801;28;20038;-82
2023/07/13 13:07:06;;;;;;;0.22;0.22;;;;;;;23.86;43.56;101111.56;5189074;28;19928;-83
2023/07/13 13:09:57;;;;;;;0.20;0.20;;;;;;;23.76;42.52;101112.41;5186078;28;20049;-82
2023/07/13 13:12:50;;;;;;;0.45;0.40;;;;;;;24.03;42.74;101106.75;5186209;28;20484;-81
2023/07/13 13:15:41;;;;;;;0.30;0.30;;;;;;;24.07;42.36;101107.38;5173762;28;20037;-83
2023/07/13 13:18:32;;;;;;;0.40;0.40;;;;;;;24.12;42.11;101100.66;5187908;28;20041;-82
2023/07/13 13:21:24;;;;;;;0.32;0.32;;;;;;;24.05;42.39;101104.81;5186796;28;20030;-82
2023/07/13 13:24:19;;;;;;;0.70;0.70;;;;;;;24.05;42.42;101105.66;5170555;28;20041;-84
2023/07/13 13:27:20;;;;;;;1.27;0.73;;;;;;;24.24;42.18;101108.72;5180343;28;20029;-83
2023/07/13 13:30:16;;;;;;;0.38;0.38;;;;;;;24.56;41.25;101114.19;5206359;28;20129;-83